Time;durP1;ratioP1;P1;durP2;ratioP2;P2;SDS_P1;SDS_P2;PMS_P1;PMS_P2;Temp;Humidity;BMP_temperature;BMP_pressure;BME280_temperature;BME280_humidity;BME280_pressure;Samples;Min_cycle;Max_cycle;Signal;HPM_P1;HPM_P2
2020/12/23 00:01:19;;;;;;;6.03;1.80;;;;;;;;;;5553008;23;20241;-70
2020/12/23 00:03:45;;;;;;;2.10;1.53;;;12.70;99.90;;;;;;4877791;29;20559;-70
2020/12/23 00:06:11;;;;;;;2.80;1.33;;;12.70;99.90;;;;;;4925081;23;20240;-70
2020/12/23 00:08:37;;;;;;;1.53;1.20;;;12.70;99.90;;;;;;4865318;29;20226;-69
2020/12/23 00:11:03;;;;;;;1.77;1.67;;;12.70;99.90;;;;;;5038964;23;20265;-69
2020/12/23 00:13:29;;;;;;;10.93;2.00;;;;;;;;;;5284923;23;20234;-69
2020/12/23 00:15:54;;;;;;;1.53;1.23;;;12.80;99.90;;;;;;4867641;29;20281;-69
2020/12/23 00:18:20;;;;;;;1.93;1.10;;;12.80;99.90;;;;;;5007471;23;20236;-68
2020/12/23 00:20:46;;;;;;;1.67;1.30;;;12.80;99.90;;;;;;4866341;29;20195;-69
2020/12/23 00:36:14;;;;;;;12.97;2.50;;;12.90;99.90;;;;;;5820926;23;21814;-69
2020/12/23 00:46:27;;;;;;;1.53;1.27;;;;;;;;;;4915159;23;20527;-69
2020/12/23 00:48:53;;;;;;;2.07;1.27;;;12.90;99.90;;;;;;5228603;23;20247;-69
2020/12/23 00:51:18;;;;;;;1.13;1.00;;;13.00;99.90;;;;;;5783916;23;20236;-69
2020/12/23 00:53:44;;;;;;;1.17;1.07;;;13.00;99.90;;;;;;5097404;23;610106;-69
2020/12/23 01:01:21;;;;;;;2.13;1.80;;;12.90;99.90;;;;;;5239265;23;20661;-70
2020/12/23 01:03:46;;;;;;;1.90;1.50;;;12.90;99.90;;;;;;5089917;23;20245;-70
2020/12/23 01:06:13;;;;;;;1.07;0.87;;;12.80;99.90;;;;;;4875095;29;20236;-70
2020/12/23 01:08:40;;;;;;;1.40;1.30;;;12.90;99.90;;;;;;5285788;23;20248;-70
2020/12/23 01:11:07;;;;;;;1.47;1.13;;;12.90;99.90;;;;;;5148413;23;20238;-70
2020/12/23 01:21:20;;;;;;;1.20;0.97;;;12.80;99.90;;;;;;5400433;23;20279;-70
2020/12/23 01:26:21;;;;;;;1.13;1.00;;;;;;;;;;5575087;23;20259;-70
2020/12/23 01:28:47;;;;;;;1.77;1.20;;;;;;;;;;4891157;29;20227;-70
2020/12/23 01:36:24;;;;;;;1.53;1.10;;;12.70;99.90;;;;;;5278649;23;20239;-70
2020/12/23 01:38:49;;;;;;;1.47;1.00;;;12.60;99.90;;;;;;4890284;29;20658;-70
2020/12/23 01:41:15;;;;;;;2.43;1.40;;;12.50;99.90;;;;;;4971718;23;20245;-68
2020/12/23 01:43:54;;;;;;;1.00;0.73;;;12.50;99.90;;;;;;4870400;29;20184;-69
2020/12/23 01:46:32;;;;;;;1.20;1.10;;;12.40;99.90;;;;;;5104317;23;20719;-68
2020/12/23 01:56:45;;;;;;;1.67;1.10;;;12.50;99.90;;;;;;5577834;23;20247;-69
2020/12/23 01:59:11;;;;;;;1.20;1.07;;;12.50;99.90;;;;;;4884638;29;20200;-69
2020/12/23 02:01:45;;;;;;;0.97;0.87;;;12.50;99.90;;;;;;5207501;23;20235;-69
2020/12/23 02:17:09;;;;;;;2.27;1.43;;;12.60;99.90;;;;;;5321407;23;22207;-69
2020/12/23 02:19:49;;;;;;;1.73;1.43;;;12.60;99.90;;;;;;4887135;29;20194;-69
2020/12/23 02:22:17;;;;;;;9.73;2.10;;;12.70;99.90;;;;;;5800262;23;20194;-69
2020/12/23 02:32:30;;;;;;;1.90;1.60;;;;;;;;;;5591011;23;20240;-69
2020/12/23 02:34:56;;;;;;;2.33;1.43;;;;;;;;;;4879548;29;20203;-69
2020/12/23 02:39:58;;;;;;;2.50;1.67;;;;;;;;;;5179429;23;20565;-68
2020/12/23 02:45:00;;;;;;;1.50;1.37;;;;;;;;;;5310098;23;20247;-69
2020/12/23 02:50:02;;;;;;;2.40;1.77;;;12.30;99.90;;;;;;5660757;23;20749;-70
2020/12/23 02:57:39;;;;;;;22.57;3.27;;;;;;;;;;5857162;23;20638;-69
2020/12/23 03:02:40;;;;;;;1.20;1.07;;;12.20;99.90;;;;;;5122091;23;20244;-69
2020/12/23 03:05:06;;;;;;;1.00;0.90;;;;;;;;;;4875560;29;20229;-69
2020/12/23 03:15:19;;;;;;;1.20;1.10;;;12.40;99.90;;;;;;5645478;23;20239;-70
2020/12/23 03:17:44;;;;;;;1.07;0.93;;;12.20;99.90;;;;;;4890528;29;20251;-69
2020/12/23 03:27:56;;;;;;;1.67;1.13;;;12.30;99.90;;;;;;5775262;23;20441;-70
2020/12/23 03:30:22;;;;;;;10.47;1.97;;;12.30;99.90;;;;;;5245580;23;20212;-70
2020/12/23 03:32:47;;;;;;;3.07;1.30;;;12.30;99.90;;;;;;4947034;23;20234;-70
2020/12/23 03:53:23;;;;;;;30.95;3.85;;;;;;;;;;5926327;23;20803;-71
2020/12/23 03:55:49;;;;;;;1.07;0.93;;;12.40;99.90;;;;;;5125770;23;20238;-70
2020/12/23 03:58:15;;;;;;;1.30;1.07;;;12.40;99.90;;;;;;5147858;23;20679;-70
2020/12/23 04:13:39;;;;;;;25.30;3.43;;;;;;;;;;5917880;23;21460;-70
2020/12/23 04:21:16;;;;;;;1.90;1.40;;;12.30;99.90;;;;;;5722776;23;20236;-71
2020/12/23 04:23:41;;;;;;;1.50;1.30;;;12.30;99.90;;;;;;5441931;23;20325;-68
2020/12/23 04:26:07;;;;;;;1.73;0.80;;;12.30;99.90;;;;;;5153859;23;20242;-68
2020/12/23 04:28:33;;;;;;;12.97;2.20;;;12.30;99.90;;;;;;5678477;23;20213;-68
2020/12/23 04:30:58;;;;;;;2.27;1.23;;;12.20;99.90;;;;;;5077406;23;20238;-68
2020/12/23 04:33:24;;;;;;;2.53;1.73;;;;;;;;;;5486509;23;20231;-69
2020/12/23 04:35:50;;;;;;;1.10;0.93;;;12.20;99.90;;;;;;5531566;23;20250;-68
2020/12/23 04:38:15;;;;;;;1.30;1.10;;;12.20;99.90;;;;;;5130946;23;20230;-68
2020/12/23 04:58:52;;;;;;;1.07;0.93;;;12.10;99.90;;;;;;5534816;23;20326;-71
2020/12/23 05:11:41;;;;;;;0.87;0.63;;;12.00;99.90;;;;;;5589838;23;20334;-70
2020/12/23 05:24:32;;;;;;;0.80;0.63;;;11.90;99.90;;;;;;5364496;23;20236;-69
2020/12/23 05:34:48;;;;;;;2.47;0.90;;;;;;;;;;5450044;23;20246;-71
2020/12/23 05:50:12;;;;;;;11.43;1.90;;;11.90;99.90;;;;;;5815249;23;20975;-69
2020/12/23 05:55:21;;;;;;;1.27;1.10;;;11.70;99.90;;;;;;5477167;23;20303;-69
2020/12/23 06:08:10;;;;;;;1.07;0.90;;;;;;;;;;5427171;23;20291;-70
2020/12/23 06:10:38;;;;;;;1.43;1.07;;;11.80;99.90;;;;;;5286863;23;20244;-70
2020/12/23 06:25:51;;;;;;;7.53;1.87;;;;;;;;;;5917847;23;20608;-69
2020/12/23 06:49:15;;;;;;;28.00;4.27;;;11.80;99.90;;;;;;5924080;23;20973;-69
2020/12/23 06:51:41;;;;;;;2.20;1.43;;;11.70;99.90;;;;;;4875810;29;20222;-70
2020/12/23 06:54:07;;;;;;;1.90;1.50;;;;;;;;;;5100118;23;20235;-69
2020/12/23 06:59:08;;;;;;;1.40;0.90;;;11.70;99.90;;;;;;5446190;23;20341;-70
2020/12/23 07:01:36;;;;;;;2.50;1.10;;;11.70;99.90;;;;;;4878826;29;20208;-70
2020/12/23 07:11:57;;;;;;;1.70;1.23;;;11.80;99.90;;;;;;5431936;23;20234;-68
2020/12/23 07:14:23;;;;;;;3.63;1.20;;;;;;;;;;5255003;23;20716;-68
2020/12/23 07:17:03;;;;;;;1.50;1.40;;;11.80;99.90;;;;;;4880919;29;20279;-70
2020/12/23 07:19:29;;;;;;;3.17;1.40;;;;;;;;;;5069111;23;20261;-69
2020/12/23 07:21:55;;;;;;;1.37;1.20;;;;;;;;;;4893461;29;20195;-69
2020/12/23 07:24:23;;;;;;;2.93;1.23;;;11.70;99.90;;;;;;4892037;29;20244;-69
2020/12/23 07:26:51;;;;;;;1.77;1.33;;;11.70;99.90;;;;;;4900394;29;20179;-69
2020/12/23 07:29:21;;;;;;;1.80;1.33;;;11.70;99.90;;;;;;4931015;23;20258;-69
2020/12/23 07:37:02;;;;;;;1.73;1.10;;;11.80;99.90;;;;;;5616442;23;20245;-71
2020/12/23 07:39:31;;;;;;;4.00;1.93;;;11.90;99.90;;;;;;5545992;23;20238;-71
2020/12/23 07:41:57;;;;;;;17.40;3.03;;;;;;;;;;5432519;23;20255;-69
2020/12/23 07:44:23;;;;;;;1.80;1.70;;;11.90;99.90;;;;;;4893206;23;20235;-69
2020/12/23 07:46:48;;;;;;;5.23;2.40;;;11.90;99.90;;;;;;4876694;23;20527;-68
2020/12/23 07:49:27;;;;;;;2.90;2.43;;;11.90;99.90;;;;;;4909585;23;20241;-69
2020/12/23 07:51:53;;;;;;;4.77;2.63;;;12.00;99.90;;;;;;4912630;29;20285;-75
2020/12/23 07:54:19;;;;;;;2.50;1.90;;;;;;;;;;5596865;23;20528;-70
2020/12/23 07:56:45;;;;;;;3.57;2.80;;;;;;;;;;5326854;23;20288;-68
2020/12/23 07:59:11;;;;;;;4.37;2.83;;;;;;;;;;5182595;23;20282;-67
2020/12/23 08:01:37;;;;;;;4.53;3.63;;;11.80;99.90;;;;;;4896051;29;20192;-68
2020/12/23 08:04:09;;;;;;;8.03;5.83;;;11.80;99.90;;;;;;4881827;29;20223;-69
2020/12/23 08:06:34;;;;;;;5.57;4.20;;;11.80;99.90;;;;;;4921299;23;20226;-69
2020/12/23 08:09:09;;;;;;;4.43;4.00;;;11.90;99.90;;;;;;4885424;29;20228;-68
2020/12/23 08:11:35;;;;;;;4.70;3.07;;;11.90;99.90;;;;;;5013191;23;20244;-68
2020/12/23 08:14:01;;;;;;;4.60;3.20;;;11.90;99.90;;;;;;4888364;29;20211;-66
2020/12/23 08:16:27;;;;;;;4.80;3.57;;;;;;;;;;4900885;23;20249;-66
2020/12/23 08:18:53;;;;;;;4.97;3.37;;;11.90;99.90;;;;;;4888560;29;20675;-66
2020/12/23 08:21:19;;;;;;;4.47;3.00;;;11.90;99.90;;;;;;4892922;29;20188;-65
2020/12/23 08:23:46;;;;;;;4.70;3.63;;;11.90;99.90;;;;;;4887529;29;20188;-67
2020/12/23 08:26:12;;;;;;;4.47;2.80;;;11.90;99.90;;;;;;4991291;23;20239;-68
2020/12/23 08:28:43;;;;;;;4.03;3.20;;;11.90;99.90;;;;;;4905913;29;20230;-68
2020/12/23 08:31:14;;;;;;;4.17;3.27;;;12.00;99.90;;;;;;4962676;23;20244;-67
2020/12/23 08:33:41;;;;;;;5.47;3.70;;;12.00;99.90;;;;;;5174623;23;20260;-68
2020/12/23 08:36:07;;;;;;;3.87;3.10;;;;;;;;;;5045912;23;20245;-68
2020/12/23 08:38:33;;;;;;;4.10;3.00;;;;;;;;;;4886976;29;20194;-68
2020/12/23 08:40:59;;;;;;;4.20;3.20;;;12.20;99.90;;;;;;5159821;23;20250;-68
2020/12/23 08:43:27;;;;;;;3.50;2.60;;;12.20;99.90;;;;;;4980851;23;20531;-68
2020/12/23 08:45:53;;;;;;;4.17;3.20;;;12.20;99.90;;;;;;4883419;29;20811;-67
2020/12/23 08:48:24;;;;;;;4.30;2.87;;;12.20;99.90;;;;;;4972606;23;20237;-68
2020/12/23 08:58:39;;;;;;;15.40;3.73;;;12.40;99.90;;;;;;5571517;23;20225;-68
2020/12/23 09:01:05;;;;;;;2.83;2.50;;;12.40;99.90;;;;;;5241483;23;20247;-70
2020/12/23 09:11:18;;;;;;;2.37;2.10;;;12.50;99.90;;;;;;5317576;23;20236;-68
2020/12/23 09:13:43;;;;;;;2.67;1.67;;;12.50;99.90;;;;;;4894275;29;20203;-67
2020/12/23 09:16:16;;;;;;;2.23;1.67;;;12.50;99.90;;;;;;5176136;23;20239;-67
2020/12/23 09:18:49;;;;;;;2.93;2.37;;;12.50;99.90;;;;;;4904370;23;20302;-67
2020/12/23 09:21:19;;;;;;;2.33;1.70;;;12.50;99.90;;;;;;5021318;23;20233;-67
2020/12/23 09:23:44;;;;;;;2.40;2.00;;;12.50;99.90;;;;;;4867032;29;20214;-71
2020/12/23 09:26:17;;;;;;;2.50;2.17;;;12.50;99.90;;;;;;4891191;23;20225;-68
2020/12/23 09:28:42;;;;;;;2.00;1.77;;;12.50;99.90;;;;;;4871737;29;20278;-67
2020/12/23 09:36:26;;;;;;;2.53;1.80;;;12.60;99.90;;;;;;5051097;23;20246;-68
2020/12/23 09:38:51;;;;;;;2.13;1.93;;;12.60;99.90;;;;;;4994060;23;20244;-66
2020/12/23 09:41:18;;;;;;;1.67;1.50;;;12.60;99.90;;;;;;4896008;23;20234;-67
2020/12/23 09:43:44;;;;;;;2.27;1.90;;;;;;;;;;4889539;29;20587;-68
2020/12/23 09:46:11;;;;;;;1.70;1.43;;;;;;;;;;5147731;23;20240;-68
2020/12/23 09:48:37;;;;;;;1.43;1.33;;;12.60;99.90;;;;;;4870073;29;20220;-67
2020/12/23 09:51:03;;;;;;;1.60;1.37;;;12.60;99.90;;;;;;4916794;23;20241;-67
2020/12/23 09:53:29;;;;;;;2.20;1.73;;;12.50;99.90;;;;;;4870017;29;20188;-67
2020/12/23 09:55:55;;;;;;;1.70;1.60;;;12.60;99.90;;;;;;4947413;23;20734;-67
2020/12/23 09:58:21;;;;;;;1.87;1.37;;;12.60;99.90;;;;;;5036404;23;20237;-67
2020/12/23 10:00:48;;;;;;;1.40;1.20;;;12.60;99.90;;;;;;4887347;29;20249;-68
2020/12/23 10:03:14;;;;;;;2.27;1.23;;;12.60;99.90;;;;;;5350515;23;20243;-67
2020/12/23 10:05:40;;;;;;;1.57;1.30;;;12.60;99.90;;;;;;4890026;29;20230;-67
2020/12/23 10:08:06;;;;;;;1.20;1.10;;;12.60;99.90;;;;;;4914152;23;20271;-67
2020/12/23 10:10:32;;;;;;;1.23;1.03;;;12.70;99.90;;;;;;4901703;29;20276;-67
2020/12/23 10:12:58;;;;;;;1.37;1.27;;;;;;;;;;4919892;23;20586;-67
2020/12/23 10:15:24;;;;;;;1.40;1.20;;;12.60;99.90;;;;;;4897450;23;20239;-67
2020/12/23 10:17:50;;;;;;;1.43;1.23;;;12.60;99.90;;;;;;5071635;23;20290;-67
2020/12/23 10:20:15;;;;;;;2.00;1.30;;;12.70;99.90;;;;;;4892282;23;20228;-68
2020/12/23 10:22:41;;;;;;;1.30;1.13;;;12.60;99.90;;;;;;4954973;23;20267;-68
2020/12/23 10:25:08;;;;;;;2.37;1.00;;;12.60;99.90;;;;;;4882974;29;20576;-68
2020/12/23 10:27:34;;;;;;;1.53;1.10;;;12.60;99.90;;;;;;4897423;23;20267;-67
2020/12/23 10:30:00;;;;;;;1.37;1.23;;;12.60;99.90;;;;;;4896774;23;20251;-67
2020/12/23 10:32:30;;;;;;;1.67;1.20;;;12.60;99.90;;;;;;4905069;23;20242;-69
2020/12/23 10:34:56;;;;;;;1.37;1.27;;;12.60;99.90;;;;;;4889666;29;20593;-66
2020/12/23 10:37:23;;;;;;;1.53;1.13;;;12.60;99.90;;;;;;4899632;23;20250;-66
2020/12/23 10:39:49;;;;;;;2.70;1.70;;;12.60;99.90;;;;;;4895787;23;20314;-66
2020/12/23 10:42:15;;;;;;;1.57;1.43;;;12.70;99.90;;;;;;4895080;29;20236;-66
2020/12/23 10:44:41;;;;;;;1.40;1.27;;;;;;;;;;4907977;23;20268;-66
2020/12/23 10:47:06;;;;;;;3.17;2.00;;;12.70;99.90;;;;;;4899415;23;20242;-66
2020/12/23 10:49:32;;;;;;;1.90;1.70;;;12.70;99.90;;;;;;4892538;29;20195;-67
2020/12/23 10:51:58;;;;;;;2.07;1.67;;;12.70;99.90;;;;;;4892977;29;20201;-66
2020/12/23 10:54:31;;;;;;;3.30;2.47;;;12.70;99.90;;;;;;4904843;23;20319;-66
2020/12/23 10:56:58;;;;;;;2.27;2.00;;;12.70;99.90;;;;;;4890387;29;20211;-65
2020/12/23 10:59:24;;;;;;;1.73;1.57;;;12.70;99.90;;;;;;4910870;23;20240;-65
2020/12/23 11:01:54;;;;;;;3.33;2.30;;;12.70;99.90;;;;;;4888280;29;20198;-66
2020/12/23 11:04:20;;;;;;;2.40;2.10;;;12.70;99.90;;;;;;4892230;29;20256;-67
2020/12/23 11:06:52;;;;;;;5.63;2.47;;;12.80;99.90;;;;;;4883895;23;20649;-66
2020/12/23 11:09:19;;;;;;;2.67;2.33;;;12.70;99.90;;;;;;4935837;23;20248;-65
2020/12/23 11:11:54;;;;;;;4.87;2.60;;;12.70;99.90;;;;;;4905895;23;20269;-65
2020/12/23 11:14:21;;;;;;;1.43;1.33;;;12.70;99.90;;;;;;4907212;23;20242;-65
2020/12/23 11:16:51;;;;;;;2.03;1.67;;;12.70;99.90;;;;;;4907551;23;20241;-67
2020/12/23 11:19:19;;;;;;;2.20;1.90;;;12.70;99.90;;;;;;4907580;23;20247;-66
2020/12/23 11:21:46;;;;;;;2.07;1.70;;;12.70;99.90;;;;;;4907014;23;20243;-67
2020/12/23 11:24:12;;;;;;;3.43;2.47;;;12.70;99.90;;;;;;4906618;23;20330;-66
2020/12/23 11:26:37;;;;;;;2.77;1.87;;;12.80;99.90;;;;;;4901084;29;20265;-65
2020/12/23 11:29:04;;;;;;;2.13;1.93;;;12.80;99.90;;;;;;4904709;23;20244;-65
2020/12/23 11:31:29;;;;;;;4.27;2.20;;;12.80;99.90;;;;;;4892502;23;20280;-65
2020/12/23 11:33:55;;;;;;;3.83;2.23;;;12.80;99.90;;;;;;4903042;23;20699;-65
2020/12/23 11:36:21;;;;;;;2.93;2.13;;;12.80;99.90;;;;;;4907003;23;20236;-67
2020/12/23 11:38:47;;;;;;;3.43;2.67;;;12.80;99.90;;;;;;5222509;23;20386;-66
2020/12/23 11:41:13;;;;;;;2.70;2.20;;;12.80;99.90;;;;;;4977103;23;20613;-66
2020/12/23 11:43:39;;;;;;;2.93;2.20;;;12.80;99.90;;;;;;4900383;29;20195;-67
2020/12/23 11:46:05;;;;;;;6.30;2.57;;;;;;;;;;5236723;23;20235;-68
2020/12/23 11:48:31;;;;;;;3.37;2.43;;;12.90;99.90;;;;;;5165297;23;20239;-69
2020/12/23 11:50:58;;;;;;;2.70;1.83;;;12.80;99.90;;;;;;4890568;29;20204;-70
2020/12/23 11:53:24;;;;;;;3.77;1.97;;;12.80;99.90;;;;;;4924635;23;20245;-67
2020/12/23 11:55:50;;;;;;;2.47;2.00;;;12.80;99.90;;;;;;4870608;29;20199;-66
2020/12/23 11:58:15;;;;;;;1.97;1.87;;;12.80;99.90;;;;;;4872425;29;20516;-67
2020/12/23 12:00:41;;;;;;;2.20;1.90;;;12.80;99.90;;;;;;4906933;23;20239;-68
2020/12/23 12:03:07;;;;;;;3.27;2.20;;;12.70;99.50;;;;;;5318724;23;20255;-65
2020/12/23 12:05:32;;;;;;;2.70;2.10;;;12.70;99.70;;;;;;4891067;29;20219;-67
2020/12/23 12:07:59;;;;;;;2.93;2.27;;;12.70;99.70;;;;;;4907330;23;20340;-68
2020/12/23 12:10:24;;;;;;;9.73;3.40;;;12.80;99.60;;;;;;5073375;23;20221;-66
2020/12/23 12:12:50;;;;;;;3.17;2.13;;;12.70;99.20;;;;;;4897012;23;20235;-68
2020/12/23 12:15:15;;;;;;;1.73;1.40;;;12.70;99.20;;;;;;4884119;23;20295;-68
2020/12/23 12:17:41;;;;;;;1.47;1.33;;;;;;;;;;4882175;29;20635;-66
2020/12/23 12:20:07;;;;;;;3.27;2.43;;;;;;;;;;4885616;29;20493;-65
2020/12/23 12:22:33;;;;;;;9.57;3.10;;;;;;;;;;4923396;23;20695;-66
2020/12/23 12:24:59;;;;;;;2.50;1.97;;;12.80;98.60;;;;;;4881857;29;20240;-68
2020/12/23 12:27:24;;;;;;;4.97;3.07;;;12.80;98.50;;;;;;4892672;29;20252;-66
2020/12/23 12:29:50;;;;;;;2.13;1.80;;;;;;;;;;4901419;23;20932;-67
2020/12/23 12:32:16;;;;;;;3.37;2.23;;;12.80;98.20;;;;;;4897378;23;20242;-64
2020/12/23 12:34:42;;;;;;;1.83;1.40;;;12.80;97.80;;;;;;4887139;29;20271;-68
2020/12/23 12:37:07;;;;;;;3.07;2.20;;;12.80;97.90;;;;;;5348680;23;20329;-68
2020/12/23 12:39:33;;;;;;;4.23;2.50;;;12.80;98.00;;;;;;4889739;29;20202;-67
2020/12/23 12:42:02;;;;;;;2.83;1.83;;;12.90;97.70;;;;;;5262787;23;20282;-67
2020/12/23 12:44:29;;;;;;;3.37;2.37;;;12.80;97.60;;;;;;4888374;23;20244;-68
2020/12/23 12:46:54;;;;;;;2.57;2.13;;;12.90;97.40;;;;;;4911539;23;20245;-67
2020/12/23 12:49:21;;;;;;;2.30;2.10;;;12.90;97.40;;;;;;4885995;23;20739;-67
2020/12/23 12:51:48;;;;;;;4.67;2.47;;;;;;;;;;4963019;23;20300;-68
2020/12/23 12:54:13;;;;;;;5.50;2.20;;;12.90;97.40;;;;;;4918172;23;20267;-67
2020/12/23 12:56:39;;;;;;;2.97;2.30;;;12.90;97.40;;;;;;4873073;29;20605;-67
2020/12/23 12:59:04;;;;;;;4.97;3.27;;;12.90;97.40;;;;;;4910188;23;20279;-67
2020/12/23 13:01:38;;;;;;;3.00;2.07;;;12.90;97.40;;;;;;4881760;29;20192;-69
2020/12/23 13:04:04;;;;;;;4.40;2.07;;;;;;;;;;5516209;23;20299;-68
2020/12/23 13:06:30;;;;;;;3.10;2.10;;;;;;;;;;5025735;23;20717;-69
2020/12/23 13:08:56;;;;;;;1.93;1.47;;;12.80;98.10;;;;;;4866131;29;20339;-69
2020/12/23 13:11:23;;;;;;;12.83;2.70;;;12.90;98.30;;;;;;5652384;23;20547;-67
2020/12/23 13:16:23;;;;;;;2.00;1.70;;;12.70;99.00;;;;;;4875829;29;20243;-69
2020/12/23 13:18:49;;;;;;;2.20;1.40;;;12.70;99.60;;;;;;4907228;23;20234;-69
2020/12/23 13:21:14;;;;;;;3.00;2.20;;;12.70;99.80;;;;;;4887620;29;20195;-66
2020/12/23 13:23:42;;;;;;;2.83;2.30;;;12.60;99.90;;;;;;4896865;23;20232;-66
2020/12/23 13:26:12;;;;;;;2.97;2.27;;;12.60;99.90;;;;;;4887964;29;20495;-65
2020/12/23 13:28:39;;;;;;;2.87;2.20;;;12.60;99.90;;;;;;4985971;23;20243;-63
2020/12/23 13:31:05;;;;;;;2.30;2.00;;;12.50;99.90;;;;;;4907763;29;20197;-65
2020/12/23 13:33:32;;;;;;;3.70;2.43;;;12.50;99.90;;;;;;4913602;23;20245;-64
2020/12/23 13:35:59;;;;;;;2.67;2.27;;;12.50;99.90;;;;;;4907873;29;20251;-67
2020/12/23 13:38:25;;;;;;;2.80;2.13;;;;;;;;;;4894162;23;20341;-67
2020/12/23 13:40:50;;;;;;;3.40;2.30;;;12.50;99.90;;;;;;4908536;23;20329;-67
2020/12/23 13:43:16;;;;;;;2.03;1.77;;;12.50;99.90;;;;;;4907874;23;20578;-67
2020/12/23 13:45:42;;;;;;;4.07;2.20;;;12.50;99.90;;;;;;4909322;23;20258;-67
2020/12/23 13:48:08;;;;;;;3.30;2.60;;;12.50;99.90;;;;;;4896799;23;20236;-66
2020/12/23 13:50:36;;;;;;;2.23;2.03;;;12.50;99.90;;;;;;4896754;29;20222;-65
2020/12/23 13:53:06;;;;;;;3.80;2.30;;;12.50;99.90;;;;;;4904517;23;20642;-66
2020/12/23 13:55:33;;;;;;;4.63;2.60;;;12.50;99.90;;;;;;4897719;29;20185;-66
2020/12/23 13:58:00;;;;;;;2.57;1.80;;;12.50;99.90;;;;;;4911585;23;20274;-66
2020/12/23 14:00:26;;;;;;;4.37;2.60;;;12.50;99.90;;;;;;4905584;29;20644;-66
2020/12/23 14:02:52;;;;;;;3.07;2.53;;;12.40;99.90;;;;;;4889581;29;20204;-66
2020/12/23 14:05:19;;;;;;;3.03;2.33;;;12.40;99.90;;;;;;4899612;23;20692;-66
2020/12/23 14:07:45;;;;;;;2.93;2.30;;;12.40;99.90;;;;;;4883324;29;20215;-66
2020/12/23 14:10:11;;;;;;;5.00;2.80;;;;;;;;;;4899099;23;20650;-66
2020/12/23 14:12:36;;;;;;;2.90;2.20;;;12.40;99.90;;;;;;4887496;29;20282;-66
2020/12/23 14:15:04;;;;;;;5.23;2.93;;;12.40;99.90;;;;;;4904207;23;20239;-66
2020/12/23 14:17:30;;;;;;;2.70;2.20;;;12.40;99.90;;;;;;4893589;29;20227;-66
2020/12/23 14:19:55;;;;;;;2.70;2.30;;;12.40;99.90;;;;;;4894234;23;20232;-66
2020/12/23 14:22:21;;;;;;;5.17;2.87;;;12.40;99.90;;;;;;4876393;29;20254;-66
2020/12/23 14:24:46;;;;;;;3.73;2.60;;;12.30;99.90;;;;;;4877854;29;20314;-66
2020/12/23 14:27:12;;;;;;;2.30;1.87;;;12.30;99.90;;;;;;4897893;23;20788;-67
2020/12/23 14:29:38;;;;;;;3.10;2.40;;;12.30;99.90;;;;;;4898959;23;20599;-67
2020/12/23 14:32:03;;;;;;;2.70;2.47;;;12.30;99.90;;;;;;4896723;29;20552;-67
2020/12/23 14:34:29;;;;;;;2.93;2.27;;;;;;;;;;4891494;29;20199;-67
2020/12/23 14:36:58;;;;;;;4.73;3.07;;;12.20;99.90;;;;;;4900280;23;20240;-67
2020/12/23 14:39:24;;;;;;;3.80;3.07;;;;;;;;;;4886172;29;20219;-67
2020/12/23 14:41:51;;;;;;;3.70;3.27;;;12.20;99.90;;;;;;4876263;29;20199;-67
2020/12/23 14:44:18;;;;;;;3.90;3.30;;;12.20;99.90;;;;;;4877829;29;20210;-67
2020/12/23 14:46:52;;;;;;;2.00;1.73;;;12.10;99.90;;;;;;4895830;23;20742;-67
2020/12/23 14:49:18;;;;;;;6.10;3.90;;;12.10;99.90;;;;;;4896968;29;20238;-66
2020/12/23 14:51:44;;;;;;;4.63;3.47;;;12.20;99.90;;;;;;4891902;29;20195;-66
2020/12/23 14:54:10;;;;;;;3.53;2.57;;;12.10;99.90;;;;;;4891817;29;20188;-66
2020/12/23 14:56:38;;;;;;;5.63;3.60;;;12.10;99.90;;;;;;4877743;29;20666;-66
2020/12/23 14:59:05;;;;;;;5.93;3.50;;;12.10;99.90;;;;;;4886101;29;20393;-66
2020/12/23 15:01:31;;;;;;;6.47;4.57;;;12.10;99.90;;;;;;4899664;29;20180;-66
2020/12/23 15:03:57;;;;;;;6.23;4.23;;;12.20;99.90;;;;;;4899346;29;20212;-66
2020/12/23 15:06:23;;;;;;;5.07;3.80;;;12.00;99.90;;;;;;4887518;29;20192;-66
2020/12/23 15:08:51;;;;;;;4.53;3.00;;;12.10;99.90;;;;;;4880380;29;20227;-66
2020/12/23 15:11:26;;;;;;;3.93;3.03;;;12.10;99.90;;;;;;4879690;29;20652;-66
2020/12/23 15:13:52;;;;;;;5.90;3.67;;;12.10;99.90;;;;;;4893049;29;20196;-66
2020/12/23 15:16:18;;;;;;;4.17;3.57;;;12.10;99.90;;;;;;4898168;29;20189;-66
2020/12/23 15:18:45;;;;;;;4.20;3.30;;;12.10;99.90;;;;;;4881683;29;20397;-66
2020/12/23 15:21:11;;;;;;;5.27;3.37;;;;;;;;;;4891230;29;20612;-66
2020/12/23 15:23:37;;;;;;;3.30;3.00;;;12.10;99.90;;;;;;4883700;29;20589;-66
2020/12/23 15:26:03;;;;;;;4.13;3.00;;;12.00;99.90;;;;;;4891947;29;20222;-66
2020/12/23 15:28:29;;;;;;;4.17;3.43;;;12.00;99.90;;;;;;4886655;29;20556;-67
2020/12/23 15:30:55;;;;;;;3.87;3.20;;;12.00;99.90;;;;;;4896652;23;20259;-67
2020/12/23 15:33:20;;;;;;;5.20;3.93;;;12.00;99.90;;;;;;4898355;23;20242;-67
2020/12/23 15:35:47;;;;;;;4.53;3.47;;;;;;;;;;4883447;23;20240;-67
2020/12/23 15:38:12;;;;;;;5.27;3.70;;;12.00;99.90;;;;;;4880013;23;20327;-66
2020/12/23 15:40:39;;;;;;;3.73;3.33;;;12.00;99.90;;;;;;4885143;23;20298;-67
2020/12/23 15:43:05;;;;;;;4.23;3.17;;;;;;;;;;4880439;29;20207;-67
2020/12/23 15:45:31;;;;;;;4.17;3.20;;;12.00;99.90;;;;;;4883409;23;20296;-68
2020/12/23 15:47:57;;;;;;;5.77;2.57;;;12.00;99.90;;;;;;4888182;23;20683;-68
2020/12/23 15:50:23;;;;;;;4.90;3.77;;;12.00;99.90;;;;;;4872302;29;20200;-67
2020/12/23 15:52:49;;;;;;;3.10;2.13;;;12.00;99.90;;;;;;4875902;29;20200;-68
2020/12/23 15:55:15;;;;;;;5.53;3.03;;;;;;;;;;4898039;23;20242;-68
2020/12/23 15:57:41;;;;;;;5.17;3.30;;;12.00;99.90;;;;;;4891218;29;20206;-67
2020/12/23 16:00:09;;;;;;;3.27;2.57;;;12.00;99.90;;;;;;4893587;23;20231;-68
2020/12/23 16:02:35;;;;;;;2.93;2.50;;;;;;;;;;4882631;23;20224;-67
2020/12/23 16:05:01;;;;;;;3.50;2.60;;;;;;;;;;4895029;23;20345;-67
2020/12/23 16:07:27;;;;;;;4.83;2.97;;;12.00;99.90;;;;;;4896830;23;20386;-67
2020/12/23 16:09:53;;;;;;;2.80;2.47;;;;;;;;;;4892588;23;20247;-68
2020/12/23 16:12:19;;;;;;;2.80;2.17;;;12.00;99.90;;;;;;4901056;23;20243;-68
2020/12/23 16:14:45;;;;;;;3.97;2.57;;;12.00;99.90;;;;;;4889228;29;20241;-67
2020/12/23 16:17:11;;;;;;;5.50;2.40;;;;;;;;;;4899583;23;20234;-68
2020/12/23 16:19:37;;;;;;;2.03;1.57;;;12.00;99.90;;;;;;4888950;29;20202;-67
2020/12/23 16:22:06;;;;;;;1.43;1.30;;;;;;;;;;4880531;23;20239;-67
2020/12/23 16:24:34;;;;;;;2.50;2.30;;;12.00;99.90;;;;;;4865205;29;20190;-68
2020/12/23 16:26:59;;;;;;;2.67;2.03;;;12.00;99.90;;;;;;4894604;24;20334;-67
2020/12/23 16:29:25;;;;;;;2.33;2.03;;;;;;;;;;4898214;23;20330;-67
2020/12/23 16:31:51;;;;;;;1.83;1.67;;;12.00;99.90;;;;;;4895412;23;20544;-68
2020/12/23 16:34:17;;;;;;;5.70;2.50;;;12.00;99.90;;;;;;4890812;23;20339;-67
2020/12/23 16:36:43;;;;;;;2.60;2.03;;;;;;;;;;4893371;29;20626;-67
2020/12/23 16:39:09;;;;;;;2.73;1.67;;;12.00;99.90;;;;;;4888949;29;20249;-67
2020/12/23 16:41:35;;;;;;;3.27;1.93;;;12.00;99.90;;;;;;4893033;23;20330;-67
2020/12/23 16:44:00;;;;;;;2.47;2.07;;;12.00;99.90;;;;;;4889592;29;20283;-65
2020/12/23 16:46:26;;;;;;;2.47;2.03;;;12.00;99.90;;;;;;4884628;29;20192;-65
2020/12/23 16:48:53;;;;;;;5.53;2.60;;;12.00;99.90;;;;;;4885222;29;20238;-67
2020/12/23 16:51:19;;;;;;;2.47;1.80;;;11.90;99.90;;;;;;4895660;23;20263;-63
2020/12/23 16:53:45;;;;;;;3.77;2.23;;;12.00;99.90;;;;;;4885457;29;20651;-65
2020/12/23 16:56:11;;;;;;;2.27;1.97;;;12.00;99.90;;;;;;4892741;29;20743;-63
2020/12/23 16:58:38;;;;;;;1.40;1.30;;;11.90;99.90;;;;;;4898726;29;20251;-63
2020/12/23 17:01:07;;;;;;;2.50;1.87;;;11.90;99.90;;;;;;4885201;29;20548;-66
2020/12/23 17:03:33;;;;;;;3.60;2.70;;;12.00;99.90;;;;;;4883718;29;20188;-69
2020/12/23 17:05:59;;;;;;;2.77;1.73;;;;;;;;;;4987676;23;20237;-69
2020/12/23 17:08:25;;;;;;;1.87;1.70;;;11.90;99.90;;;;;;4905944;29;20572;-69
2020/12/23 17:10:53;;;;;;;2.33;1.87;;;11.80;99.90;;;;;;4898202;23;20243;-68
2020/12/23 17:13:19;;;;;;;2.00;1.80;;;;;;;;;;4891648;23;20232;-68
2020/12/23 17:15:48;;;;;;;2.63;2.13;;;11.80;99.90;;;;;;5050255;23;20706;-70
2020/12/23 17:18:14;;;;;;;1.97;1.77;;;11.80;99.90;;;;;;4888485;23;20688;-69
2020/12/23 17:20:42;;;;;;;2.60;1.73;;;11.80;99.90;;;;;;4872301;29;20283;-70
2020/12/23 17:23:08;;;;;;;2.27;2.03;;;11.80;99.90;;;;;;4877105;23;20242;-69
2020/12/23 17:25:34;;;;;;;2.23;1.50;;;11.70;99.90;;;;;;4885882;23;20228;-69
2020/12/23 17:28:00;;;;;;;3.50;2.03;;;11.70;99.90;;;;;;4967982;23;20243;-69
2020/12/23 17:30:26;;;;;;;2.23;1.90;;;11.70;99.90;;;;;;4905181;23;20244;-69
2020/12/23 17:32:52;;;;;;;2.33;1.97;;;11.70;99.90;;;;;;4884501;29;20201;-69
2020/12/23 17:35:18;;;;;;;2.43;1.77;;;;;;;;;;4881879;29;20189;-70
2020/12/23 17:37:47;;;;;;;3.63;2.60;;;11.70;99.90;;;;;;4889536;23;20309;-69
2020/12/23 17:40:13;;;;;;;2.27;1.80;;;11.70;99.90;;;;;;4889274;24;20279;-69
2020/12/23 17:42:43;;;;;;;2.53;2.23;;;11.70;99.90;;;;;;4893473;29;20225;-69
2020/12/23 17:45:10;;;;;;;3.93;1.83;;;;;;;;;;4887239;23;20708;-69